sensor_id;sensor_type;location;lat;lon;timestamp;P1;P2;P0
77538;PMS7003;67783;51.656;16.106;2023-10-08T00:01:11;0;0;0
77538;PMS7003;67783;51.656;16.106;2023-10-08T00:04:24;0;0;0
77538;PMS7003;67783;51.656;16.106;2023-10-08T00:07:26;0;0;0
77538;PMS7003;67783;51.656;16.106;2023-10-08T00:10:28;0;0;0
77538;PMS7003;67783;51.656;16.106;2023-10-08T00:13:30;0;0;0
77538;PMS7003;67783;51.656;16.106;2023-10-08T00:16:32;0;0;0
77538;PMS7003;67783;51.656;16.106;2023-10-08T00:19:44;0;0;0
77538;PMS7003;67783;51.656;16.106;2023-10-08T00:22:47;0;0;0
77538;PMS7003;67783;51.656;16.106;2023-10-08T00:25:50;0;0;0
77538;PMS7003;67783;51.656;16.106;2023-10-08T00:28:51;0;0;0
77538;PMS7003;67783;51.656;16.106;2023-10-08T00:31:53;0;0;0
77538;PMS7003;67783;51.656;16.106;2023-10-08T00:35:05;0;0;0
77538;PMS7003;67783;51.656;16.106;2023-10-08T00:38:07;2;0;0
77538;PMS7003;67783;51.656;16.106;2023-10-08T00:41:21;0;0;0
77538;PMS7003;67783;51.656;16.106;2023-10-08T00:44:31;0;0;0
77538;PMS7003;67783;51.656;16.106;2023-10-08T00:47:41;0;0;0
77538;PMS7003;67783;51.656;16.106;2023-10-08T00:50:47;0;0;0
77538;PMS7003;67783;51.656;16.106;2023-10-08T00:54:02;0;0;0
77538;PMS7003;67783;51.656;16.106;2023-10-08T00:57:08;0;0;0
77538;PMS7003;67783;51.656;16.106;2023-10-08T01:00:12;0;0;0
77538;PMS7003;67783;51.656;16.106;2023-10-08T01:03:26;0;0;0
77538;PMS7003;67783;51.656;16.106;2023-10-08T01:06:31;0;0;0
77538;PMS7003;67783;51.656;16.106;2023-10-08T01:09:35;1;0;0
77538;PMS7003;67783;51.656;16.106;2023-10-08T01:12:38;0;0;0
77538;PMS7003;67783;51.656;16.106;2023-10-08T01:15:50;0;0;0
77538;PMS7003;67783;51.656;16.106;2023-10-08T01:18:55;0;0;0
77538;PMS7003;67783;51.656;16.106;2023-10-08T01:21:57;0;0;0
77538;PMS7003;67783;51.656;16.106;2023-10-08T01:25:08;0;0;0
77538;PMS7003;67783;51.656;16.106;2023-10-08T01:28:21;0;0;0
77538;PMS7003;67783;51.656;16.106;2023-10-08T01:31:31;0;0;0
77538;PMS7003;67783;51.656;16.106;2023-10-08T01:34:33;0;0;0
77538;PMS7003;67783;51.656;16.106;2023-10-08T01:37:37;0;0;0
77538;PMS7003;67783;51.656;16.106;2023-10-08T01:40:41;0;0;0
77538;PMS7003;67783;51.656;16.106;2023-10-08T01:43:46;3;0;0
77538;PMS7003;67783;51.656;16.106;2023-10-08T01:46:47;0;0;0
77538;PMS7003;67783;51.656;16.106;2023-10-08T01:49:50;0;0;0
77538;PMS7003;67783;51.656;16.106;2023-10-08T01:53:12;0;0;0
77538;PMS7003;67783;51.656;16.106;2023-10-08T01:56:17;1;0;0
77538;PMS7003;67783;51.656;16.106;2023-10-08T01:59:18;0;0;0
77538;PMS7003;67783;51.656;16.106;2023-10-08T02:02:20;0;0;0
77538;PMS7003;67783;51.656;16.106;2023-10-08T02:05:22;0;0;0
77538;PMS7003;67783;51.656;16.106;2023-10-08T02:08:33;0;0;0
77538;PMS7003;67783;51.656;16.106;2023-10-08T02:14:44;0;0;0
77538;PMS7003;67783;51.656;16.106;2023-10-08T02:17:45;0;0;0
77538;PMS7003;67783;51.656;16.106;2023-10-08T02:20:48;0;0;0
77538;PMS7003;67783;51.656;16.106;2023-10-08T02:23:53;2;0;0
77538;PMS7003;67783;51.656;16.106;2023-10-08T02:26:55;0;0;0
77538;PMS7003;67783;51.656;16.106;2023-10-08T02:29:58;0;0;0
77538;PMS7003;67783;51.656;16.106;2023-10-08T02:33:00;0;0;0
77538;PMS7003;67783;51.656;16.106;2023-10-08T02:36:02;0;0;0
77538;PMS7003;67783;51.656;16.106;2023-10-08T02:39:14;0;0;0
77538;PMS7003;67783;51.656;16.106;2023-10-08T02:42:26;0;0;0
77538;PMS7003;67783;51.656;16.106;2023-10-08T02:45:27;1;0;0
77538;PMS7003;67783;51.656;16.106;2023-10-08T02:48:41;0;0;0
77538;PMS7003;67783;51.656;16.106;2023-10-08T02:51:43;0;0;0
77538;PMS7003;67783;51.656;16.106;2023-10-08T02:54:45;0;0;0
77538;PMS7003;67783;51.656;16.106;2023-10-08T02:57:47;0;0;0
77538;PMS7003;67783;51.656;16.106;2023-10-08T03:00:51;0;0;0
77538;PMS7003;67783;51.656;16.106;2023-10-08T03:04:01;0;0;0
77538;PMS7003;67783;51.656;16.106;2023-10-08T03:07:13;0;0;0
77538;PMS7003;67783;51.656;16.106;2023-10-08T03:10:22;0;0;0
77538;PMS7003;67783;51.656;16.106;2023-10-08T03:13:33;0;0;0
77538;PMS7003;67783;51.656;16.106;2023-10-08T03:16:39;0;0;0
77538;PMS7003;67783;51.656;16.106;2023-10-08T03:19:42;0;0;0
77538;PMS7003;67783;51.656;16.106;2023-10-08T03:22:54;0;0;0
77538;PMS7003;67783;51.656;16.106;2023-10-08T03:25:58;1;0;0
77538;PMS7003;67783;51.656;16.106;2023-10-08T03:29:03;0;0;0
77538;PMS7003;67783;51.656;16.106;2023-10-08T03:32:21;0;0;0
77538;PMS7003;67783;51.656;16.106;2023-10-08T03:35:27;0;0;0
77538;PMS7003;67783;51.656;16.106;2023-10-08T03:38:36;0;0;0
77538;PMS7003;67783;51.656;16.106;2023-10-08T03:41:50;0;0;0
77538;PMS7003;67783;51.656;16.106;2023-10-08T03:45:04;0;0;0
77538;PMS7003;67783;51.656;16.106;2023-10-08T03:48:13;0;0;0
77538;PMS7003;67783;51.656;16.106;2023-10-08T03:51:18;0;0;0
77538;PMS7003;67783;51.656;16.106;2023-10-08T03:54:23;0;0;0
77538;PMS7003;67783;51.656;16.106;2023-10-08T03:57:31;1;1;0
77538;PMS7003;67783;51.656;16.106;2023-10-08T04:00:44;0;0;0
77538;PMS7003;67783;51.656;16.106;2023-10-08T04:03:46;1;0;0
77538;PMS7003;67783;51.656;16.106;2023-10-08T04:07:00;0;0;0
77538;PMS7003;67783;51.656;16.106;2023-10-08T04:10:13;0;0;0
77538;PMS7003;67783;51.656;16.106;2023-10-08T04:13:25;0;0;0
77538;PMS7003;67783;51.656;16.106;2023-10-08T04:16:29;0;0;0
77538;PMS7003;67783;51.656;16.106;2023-10-08T04:19:38;4;0;0
77538;PMS7003;67783;51.656;16.106;2023-10-08T04:22:41;2;0;0
77538;PMS7003;67783;51.656;16.106;2023-10-08T04:25:44;0;0;0
77538;PMS7003;67783;51.656;16.106;2023-10-08T04:28:47;0;0;0
77538;PMS7003;67783;51.656;16.106;2023-10-08T04:31:49;0;0;0
77538;PMS7003;67783;51.656;16.106;2023-10-08T04:35:02;0;0;0
77538;PMS7003;67783;51.656;16.106;2023-10-08T04:41:23;2;0;0
77538;PMS7003;67783;51.656;16.106;2023-10-08T04:44:29;3;0;0
77538;PMS7003;67783;51.656;16.106;2023-10-08T04:47:32;0;0;0
77538;PMS7003;67783;51.656;16.106;2023-10-08T04:50:36;0;0;0
77538;PMS7003;67783;51.656;16.106;2023-10-08T04:53:38;0;0;0
77538;PMS7003;67783;51.656;16.106;2023-10-08T04:56:44;0;0;0
77538;PMS7003;67783;51.656;16.106;2023-10-08T04:59:49;2;1;0
77538;PMS7003;67783;51.656;16.106;2023-10-08T05:02:51;0;0;0
77538;PMS7003;67783;51.656;16.106;2023-10-08T05:06:00;2;0;0
77538;PMS7003;67783;51.656;16.106;2023-10-08T05:09:16;1;1;0
77538;PMS7003;67783;51.656;16.106;2023-10-08T05:12:24;1;1;0
77538;PMS7003;67783;51.656;16.106;2023-10-08T05:15:39;1;0;0
77538;PMS7003;67783;51.656;16.106;2023-10-08T05:18:55;1;1;1
77538;PMS7003;67783;51.656;16.106;2023-10-08T05:22:17;1;1;0
77538;PMS7003;67783;51.656;16.106;2023-10-08T05:25:24;1;1;0
77538;PMS7003;67783;51.656;16.106;2023-10-08T05:28:36;3;1;1
77538;PMS7003;67783;51.656;16.106;2023-10-08T05:31:51;0;0;0
77538;PMS7003;67783;51.656;16.106;2023-10-08T05:35:15;8;2;1
77538;PMS7003;67783;51.656;16.106;2023-10-08T05:38:29;1;0;0
77538;PMS7003;67783;51.656;16.106;2023-10-08T05:41:41;1;1;1
77538;PMS7003;67783;51.656;16.106;2023-10-08T05:44:55;1;1;0
77538;PMS7003;67783;51.656;16.106;2023-10-08T05:48:18;0;0;0
77538;PMS7003;67783;51.656;16.106;2023-10-08T05:51:28;1;1;0
77538;PMS7003;67783;51.656;16.106;2023-10-08T05:54:42;1;1;1
77538;PMS7003;67783;51.656;16.106;2023-10-08T05:58:02;1;1;0
77538;PMS7003;67783;51.656;16.106;2023-10-08T06:01:20;1;1;0
77538;PMS7003;67783;51.656;16.106;2023-10-08T06:04:32;0;0;0
77538;PMS7003;67783;51.656;16.106;2023-10-08T06:07:52;1;1;1
77538;PMS7003;67783;51.656;16.106;2023-10-08T06:11:04;0;0;0
77538;PMS7003;67783;51.656;16.106;2023-10-08T06:14:25;0;0;0
77538;PMS7003;67783;51.656;16.106;2023-10-08T06:17:40;2;1;1
77538;PMS7003;67783;51.656;16.106;2023-10-08T06:20:57;1;1;0
77538;PMS7003;67783;51.656;16.106;2023-10-08T06:24:00;1;1;0
77538;PMS7003;67783;51.656;16.106;2023-10-08T06:27:02;0;0;0
77538;PMS7003;67783;51.656;16.106;2023-10-08T06:30:07;0;0;0
77538;PMS7003;67783;51.656;16.106;2023-10-08T06:33:25;1;1;1
77538;PMS7003;67783;51.656;16.106;2023-10-08T06:36:31;1;1;1
77538;PMS7003;67783;51.656;16.106;2023-10-08T06:39:33;0;0;0
77538;PMS7003;67783;51.656;16.106;2023-10-08T06:42:52;1;0;0
77538;PMS7003;67783;51.656;16.106;2023-10-08T06:45:57;0;0;0
77538;PMS7003;67783;51.656;16.106;2023-10-08T06:48:59;0;0;0
77538;PMS7003;67783;51.656;16.106;2023-10-08T06:52:01;0;0;0
77538;PMS7003;67783;51.656;16.106;2023-10-08T06:55:05;0;0;0
77538;PMS7003;67783;51.656;16.106;2023-10-08T06:58:12;0;0;0
77538;PMS7003;67783;51.656;16.106;2023-10-08T07:01:19;0;0;0
77538;PMS7003;67783;51.656;16.106;2023-10-08T07:04:25;0;0;0
77538;PMS7003;67783;51.656;16.106;2023-10-08T07:07:39;0;0;0
77538;PMS7003;67783;51.656;16.106;2023-10-08T07:10:45;0;0;0
77538;PMS7003;67783;51.656;16.106;2023-10-08T07:13:47;0;0;0
77538;PMS7003;67783;51.656;16.106;2023-10-08T07:16:51;0;0;0
77538;PMS7003;67783;51.656;16.106;2023-10-08T07:19:59;0;0;0
77538;PMS7003;67783;51.656;16.106;2023-10-08T07:23:06;0;0;0
77538;PMS7003;67783;51.656;16.106;2023-10-08T07:26:22;0;0;0
77538;PMS7003;67783;51.656;16.106;2023-10-08T07:29:38;0;0;0
77538;PMS7003;67783;51.656;16.106;2023-10-08T07:32:42;0;0;0
77538;PMS7003;67783;51.656;16.106;2023-10-08T07:35:45;0;0;0
77538;PMS7003;67783;51.656;16.106;2023-10-08T07:39:04;0;0;0
77538;PMS7003;67783;51.656;16.106;2023-10-08T07:42:14;0;0;0
77538;PMS7003;67783;51.656;16.106;2023-10-08T07:45:16;0;0;0
77538;PMS7003;67783;51.656;16.106;2023-10-08T07:48:18;0;0;0
77538;PMS7003;67783;51.656;16.106;2023-10-08T07:51:23;0;0;0
77538;PMS7003;67783;51.656;16.106;2023-10-08T07:54:25;0;0;0
77538;PMS7003;67783;51.656;16.106;2023-10-08T07:57:30;0;0;0
77538;PMS7003;67783;51.656;16.106;2023-10-08T08:00:32;0;0;0
77538;PMS7003;67783;51.656;16.106;2023-10-08T08:03:41;0;0;0
77538;PMS7003;67783;51.656;16.106;2023-10-08T08:06:45;0;0;0
77538;PMS7003;67783;51.656;16.106;2023-10-08T08:09:52;0;0;0
77538;PMS7003;67783;51.656;16.106;2023-10-08T08:13:00;0;0;0
77538;PMS7003;67783;51.656;16.106;2023-10-08T08:16:02;0;0;0
77538;PMS7003;67783;51.656;16.106;2023-10-08T08:19:15;0;0;0
77538;PMS7003;67783;51.656;16.106;2023-10-08T08:22:22;0;0;0
77538;PMS7003;67783;51.656;16.106;2023-10-08T08:25:29;0;0;0
77538;PMS7003;67783;51.656;16.106;2023-10-08T08:28:35;0;0;0
77538;PMS7003;67783;51.656;16.106;2023-10-08T08:31:36;0;0;0
77538;PMS7003;67783;51.656;16.106;2023-10-08T08:34:38;0;0;0
77538;PMS7003;67783;51.656;16.106;2023-10-08T08:37:45;0;0;0
77538;PMS7003;67783;51.656;16.106;2023-10-08T08:41:01;0;0;0
77538;PMS7003;67783;51.656;16.106;2023-10-08T08:44:07;0;0;0
77538;PMS7003;67783;51.656;16.106;2023-10-08T08:47:12;0;0;0
77538;PMS7003;67783;51.656;16.106;2023-10-08T08:50:25;1;0;0
77538;PMS7003;67783;51.656;16.106;2023-10-08T08:53:28;0;0;0
77538;PMS7003;67783;51.656;16.106;2023-10-08T08:56:39;0;0;0
77538;PMS7003;67783;51.656;16.106;2023-10-08T08:59:47;0;0;0
77538;PMS7003;67783;51.656;16.106;2023-10-08T09:02:54;0;0;0
77538;PMS7003;67783;51.656;16.106;2023-10-08T09:06:05;0;0;0
77538;PMS7003;67783;51.656;16.106;2023-10-08T09:09:07;0;0;0
77538;PMS7003;67783;51.656;16.106;2023-10-08T09:12:20;0;0;0
77538;PMS7003;67783;51.656;16.106;2023-10-08T09:15:32;2;0;0
77538;PMS7003;67783;51.656;16.106;2023-10-08T09:18:34;0;0;0
77538;PMS7003;67783;51.656;16.106;2023-10-08T09:21:36;0;0;0
77538;PMS7003;67783;51.656;16.106;2023-10-08T09:24:38;0;0;0
77538;PMS7003;67783;51.656;16.106;2023-10-08T09:27:41;0;0;0
77538;PMS7003;67783;51.656;16.106;2023-10-08T09:30:52;0;0;0
77538;PMS7003;67783;51.656;16.106;2023-10-08T09:33:59;0;0;0
77538;PMS7003;67783;51.656;16.106;2023-10-08T09:37:00;0;0;0
77538;PMS7003;67783;51.656;16.106;2023-10-08T09:40:03;0;0;0
77538;PMS7003;67783;51.656;16.106;2023-10-08T09:43:10;0;0;0
77538;PMS7003;67783;51.656;16.106;2023-10-08T09:49:32;0;0;0
77538;PMS7003;67783;51.656;16.106;2023-10-08T09:52:47;0;0;0
77538;PMS7003;67783;51.656;16.106;2023-10-08T09:55:58;0;0;0
77538;PMS7003;67783;51.656;16.106;2023-10-08T09:59:02;0;0;0
77538;PMS7003;67783;51.656;16.106;2023-10-08T10:02:04;0;0;0
77538;PMS7003;67783;51.656;16.106;2023-10-08T10:08:22;0;0;0
77538;PMS7003;67783;51.656;16.106;2023-10-08T10:11:29;0;0;0
77538;PMS7003;67783;51.656;16.106;2023-10-08T10:14:41;0;0;0
77538;PMS7003;67783;51.656;16.106;2023-10-08T10:17:43;0;0;0
77538;PMS7003;67783;51.656;16.106;2023-10-08T10:20:53;0;0;0
77538;PMS7003;67783;51.656;16.106;2023-10-08T10:24:21;0;0;0
77538;PMS7003;67783;51.656;16.106;2023-10-08T10:27:20;0;0;0
77538;PMS7003;67783;51.656;16.106;2023-10-08T10:30:22;0;0;0
77538;PMS7003;67783;51.656;16.106;2023-10-08T10:33:33;0;0;0
77538;PMS7003;67783;51.656;16.106;2023-10-08T10:36:35;0;0;0
77538;PMS7003;67783;51.656;16.106;2023-10-08T10:39:40;0;0;0
77538;PMS7003;67783;51.656;16.106;2023-10-08T10:42:47;0;0;0
77538;PMS7003;67783;51.656;16.106;2023-10-08T10:45:55;0;0;0
77538;PMS7003;67783;51.656;16.106;2023-10-08T10:49:00;0;0;0
77538;PMS7003;67783;51.656;16.106;2023-10-08T10:52:15;0;0;0
77538;PMS7003;67783;51.656;16.106;2023-10-08T10:55:31;0;0;0
77538;PMS7003;67783;51.656;16.106;2023-10-08T10:58:36;0;0;0
77538;PMS7003;67783;51.656;16.106;2023-10-08T11:04:55;0;0;0
77538;PMS7003;67783;51.656;16.106;2023-10-08T11:08:07;0;0;0
77538;PMS7003;67783;51.656;16.106;2023-10-08T11:11:10;0;0;0
77538;PMS7003;67783;51.656;16.106;2023-10-08T11:14:12;0;0;0
77538;PMS7003;67783;51.656;16.106;2023-10-08T11:17:29;0;0;0
77538;PMS7003;67783;51.656;16.106;2023-10-08T11:20:34;0;0;0
77538;PMS7003;67783;51.656;16.106;2023-10-08T11:26:55;0;0;0
77538;PMS7003;67783;51.656;16.106;2023-10-08T11:30:08;0;0;0
77538;PMS7003;67783;51.656;16.106;2023-10-08T11:33:11;0;0;0
77538;PMS7003;67783;51.656;16.106;2023-10-08T11:36:22;0;0;0
77538;PMS7003;67783;51.656;16.106;2023-10-08T11:42:46;0;0;0
77538;PMS7003;67783;51.656;16.106;2023-10-08T11:45:52;0;0;0
77538;PMS7003;67783;51.656;16.106;2023-10-08T11:48:54;0;0;0
77538;PMS7003;67783;51.656;16.106;2023-10-08T11:52:04;0;0;0
77538;PMS7003;67783;51.656;16.106;2023-10-08T11:55:05;0;0;0
77538;PMS7003;67783;51.656;16.106;2023-10-08T11:58:08;0;0;0
77538;PMS7003;67783;51.656;16.106;2023-10-08T12:01:17;0;0;0
77538;PMS7003;67783;51.656;16.106;2023-10-08T12:04:19;0;0;0
77538;PMS7003;67783;51.656;16.106;2023-10-08T12:07:23;0;0;0
77538;PMS7003;67783;51.656;16.106;2023-10-08T12:10:28;0;0;0
77538;PMS7003;67783;51.656;16.106;2023-10-08T12:13:35;0;0;0
77538;PMS7003;67783;51.656;16.106;2023-10-08T12:16:39;0;0;0
77538;PMS7003;67783;51.656;16.106;2023-10-08T12:19:43;0;0;0
77538;PMS7003;67783;51.656;16.106;2023-10-08T12:22:46;0;0;0
77538;PMS7003;67783;51.656;16.106;2023-10-08T12:26:10;0;0;0
77538;PMS7003;67783;51.656;16.106;2023-10-08T12:29:16;0;0;0
77538;PMS7003;67783;51.656;16.106;2023-10-08T12:32:19;0;0;0
77538;PMS7003;67783;51.656;16.106;2023-10-08T12:35:27;0;0;0
77538;PMS7003;67783;51.656;16.106;2023-10-08T12:38:32;0;0;0
77538;PMS7003;67783;51.656;16.106;2023-10-08T12:41:33;0;0;0
77538;PMS7003;67783;51.656;16.106;2023-10-08T12:44:39;0;0;0
77538;PMS7003;67783;51.656;16.106;2023-10-08T12:47:40;0;0;0
77538;PMS7003;67783;51.656;16.106;2023-10-08T12:50:43;0;0;0
77538;PMS7003;67783;51.656;16.106;2023-10-08T12:53:52;0;0;0
77538;PMS7003;67783;51.656;16.106;2023-10-08T12:57:06;0;0;0
77538;PMS7003;67783;51.656;16.106;2023-10-08T13:00:10;0;0;0
77538;PMS7003;67783;51.656;16.106;2023-10-08T13:03:19;0;0;0
77538;PMS7003;67783;51.656;16.106;2023-10-08T13:06:24;0;0;0
77538;PMS7003;67783;51.656;16.106;2023-10-08T13:09:31;0;0;0
77538;PMS7003;67783;51.656;16.106;2023-10-08T13:12:45;0;0;0
77538;PMS7003;67783;51.656;16.106;2023-10-08T13:15:47;0;0;0
77538;PMS7003;67783;51.656;16.106;2023-10-08T13:18:49;0;0;0
77538;PMS7003;67783;51.656;16.106;2023-10-08T13:21:51;0;0;0
77538;PMS7003;67783;51.656;16.106;2023-10-08T13:24:55;0;0;0
77538;PMS7003;67783;51.656;16.106;2023-10-08T13:28:06;0;0;0
77538;PMS7003;67783;51.656;16.106;2023-10-08T13:31:12;0;0;0
77538;PMS7003;67783;51.656;16.106;2023-10-08T13:34:17;0;0;0
77538;PMS7003;67783;51.656;16.106;2023-10-08T13:37:18;0;0;0
77538;PMS7003;67783;51.656;16.106;2023-10-08T13:40:20;0;0;0
77538;PMS7003;67783;51.656;16.106;2023-10-08T13:43:32;0;0;0
77538;PMS7003;67783;51.656;16.106;2023-10-08T13:46:35;0;0;0
77538;PMS7003;67783;51.656;16.106;2023-10-08T13:49:48;0;0;0
77538;PMS7003;67783;51.656;16.106;2023-10-08T13:52:53;0;0;0
77538;PMS7003;67783;51.656;16.106;2023-10-08T13:59:05;0;0;0
77538;PMS7003;67783;51.656;16.106;2023-10-08T14:02:20;0;0;0
77538;PMS7003;67783;51.656;16.106;2023-10-08T14:05:25;0;0;0
77538;PMS7003;67783;51.656;16.106;2023-10-08T14:08:28;0;0;0
77538;PMS7003;67783;51.656;16.106;2023-10-08T14:11:32;0;0;0
77538;PMS7003;67783;51.656;16.106;2023-10-08T14:14:34;0;0;0
77538;PMS7003;67783;51.656;16.106;2023-10-08T14:17:40;0;0;0
77538;PMS7003;67783;51.656;16.106;2023-10-08T14:20:48;2;0;0
77538;PMS7003;67783;51.656;16.106;2023-10-08T14:23:54;0;0;0
77538;PMS7003;67783;51.656;16.106;2023-10-08T14:27:07;0;0;0
77538;PMS7003;67783;51.656;16.106;2023-10-08T14:30:11;0;0;0
77538;PMS7003;67783;51.656;16.106;2023-10-08T14:33:21;0;0;0
77538;PMS7003;67783;51.656;16.106;2023-10-08T14:36:33;0;0;0
77538;PMS7003;67783;51.656;16.106;2023-10-08T14:39:47;0;0;0
77538;PMS7003;67783;51.656;16.106;2023-10-08T14:43:01;0;0;0
77538;PMS7003;67783;51.656;16.106;2023-10-08T14:46:06;0;0;0
77538;PMS7003;67783;51.656;16.106;2023-10-08T14:49:10;0;0;0
77538;PMS7003;67783;51.656;16.106;2023-10-08T14:52:11;0;0;0
77538;PMS7003;67783;51.656;16.106;2023-10-08T14:55:14;0;0;0
77538;PMS7003;67783;51.656;16.106;2023-10-08T14:58:17;0;0;0
77538;PMS7003;67783;51.656;16.106;2023-10-08T15:01:26;0;0;0
77538;PMS7003;67783;51.656;16.106;2023-10-08T15:04:28;0;0;0
77538;PMS7003;67783;51.656;16.106;2023-10-08T15:07:32;0;0;0
77538;PMS7003;67783;51.656;16.106;2023-10-08T15:10:36;0;0;0
77538;PMS7003;67783;51.656;16.106;2023-10-08T15:13:38;0;0;0
77538;PMS7003;67783;51.656;16.106;2023-10-08T15:16:46;0;0;0
77538;PMS7003;67783;51.656;16.106;2023-10-08T15:19:53;0;0;0
77538;PMS7003;67783;51.656;16.106;2023-10-08T15:23:00;0;0;0
77538;PMS7003;67783;51.656;16.106;2023-10-08T15:26:02;0;0;0
77538;PMS7003;67783;51.656;16.106;2023-10-08T15:29:03;0;0;0
77538;PMS7003;67783;51.656;16.106;2023-10-08T15:32:08;0;0;0
77538;PMS7003;67783;51.656;16.106;2023-10-08T15:35:11;0;0;0
77538;PMS7003;67783;51.656;16.106;2023-10-08T15:38:20;0;0;0
77538;PMS7003;67783;51.656;16.106;2023-10-08T15:41:36;0;0;0
77538;PMS7003;67783;51.656;16.106;2023-10-08T15:44:38;0;0;0
77538;PMS7003;67783;51.656;16.106;2023-10-08T15:47:39;0;0;0
77538;PMS7003;67783;51.656;16.106;2023-10-08T15:50:41;1;0;0
77538;PMS7003;67783;51.656;16.106;2023-10-08T15:53:42;1;0;0
77538;PMS7003;67783;51.656;16.106;2023-10-08T15:56:44;0;0;0
77538;PMS7003;67783;51.656;16.106;2023-10-08T15:59:45;1;0;0
77538;PMS7003;67783;51.656;16.106;2023-10-08T16:02:50;0;0;0
77538;PMS7003;67783;51.656;16.106;2023-10-08T16:05:52;0;0;0
77538;PMS7003;67783;51.656;16.106;2023-10-08T16:08:55;0;0;0
77538;PMS7003;67783;51.656;16.106;2023-10-08T16:11:57;0;0;0
77538;PMS7003;67783;51.656;16.106;2023-10-08T16:15:00;0;0;0
77538;PMS7003;67783;51.656;16.106;2023-10-08T16:18:11;1;0;0
77538;PMS7003;67783;51.656;16.106;2023-10-08T16:21:12;5;1;0
77538;PMS7003;67783;51.656;16.106;2023-10-08T16:24:15;3;2;2
77538;PMS7003;67783;51.656;16.106;2023-10-08T16:27:16;1;1;1
77538;PMS7003;67783;51.656;16.106;2023-10-08T16:30:20;0;0;0
77538;PMS7003;67783;51.656;16.106;2023-10-08T16:33:31;0;0;0
77538;PMS7003;67783;51.656;16.106;2023-10-08T16:36:33;1;0;0
77538;PMS7003;67783;51.656;16.106;2023-10-08T16:39:35;0;0;0
77538;PMS7003;67783;51.656;16.106;2023-10-08T16:42:38;0;0;0
77538;PMS7003;67783;51.656;16.106;2023-10-08T16:45:44;2;1;0
77538;PMS7003;67783;51.656;16.106;2023-10-08T16:48:52;1;0;0
77538;PMS7003;67783;51.656;16.106;2023-10-08T16:51:54;0;0;0
77538;PMS7003;67783;51.656;16.106;2023-10-08T16:54:55;5;1;0
77538;PMS7003;67783;51.656;16.106;2023-10-08T16:57:57;1;1;0
77538;PMS7003;67783;51.656;16.106;2023-10-08T17:01:01;0;0;0
77538;PMS7003;67783;51.656;16.106;2023-10-08T17:04:12;0;0;0
77538;PMS7003;67783;51.656;16.106;2023-10-08T17:07:14;0;0;0
77538;PMS7003;67783;51.656;16.106;2023-10-08T17:10:19;0;0;0
77538;PMS7003;67783;51.656;16.106;2023-10-08T17:13:21;0;0;0
77538;PMS7003;67783;51.656;16.106;2023-10-08T17:16:23;0;0;0
77538;PMS7003;67783;51.656;16.106;2023-10-08T17:19:33;0;0;0
77538;PMS7003;67783;51.656;16.106;2023-10-08T17:22:36;0;0;0
77538;PMS7003;67783;51.656;16.106;2023-10-08T17:25:38;0;0;0
77538;PMS7003;67783;51.656;16.106;2023-10-08T17:28:42;0;0;0
77538;PMS7003;67783;51.656;16.106;2023-10-08T17:31:43;0;0;0
77538;PMS7003;67783;51.656;16.106;2023-10-08T17:34:54;2;2;1
77538;PMS7003;67783;51.656;16.106;2023-10-08T17:37:55;1;0;0
77538;PMS7003;67783;51.656;16.106;2023-10-08T17:40:57;0;0;0
77538;PMS7003;67783;51.656;16.106;2023-10-08T17:44:00;0;0;0
77538;PMS7003;67783;51.656;16.106;2023-10-08T17:47:02;2;1;0
77538;PMS7003;67783;51.656;16.106;2023-10-08T17:50:14;0;0;0
77538;PMS7003;67783;51.656;16.106;2023-10-08T17:53:17;1;1;1
77538;PMS7003;67783;51.656;16.106;2023-10-08T17:56:22;7;3;3
77538;PMS7003;67783;51.656;16.106;2023-10-08T17:59:23;0;0;0
77538;PMS7003;67783;51.656;16.106;2023-10-08T18:02:25;1;1;1
77538;PMS7003;67783;51.656;16.106;2023-10-08T18:05:35;1;1;1
77538;PMS7003;67783;51.656;16.106;2023-10-08T18:08:38;3;3;2
77538;PMS7003;67783;51.656;16.106;2023-10-08T18:11:40;6;4;2
77538;PMS7003;67783;51.656;16.106;2023-10-08T18:14:45;4;4;4
77538;PMS7003;67783;51.656;16.106;2023-10-08T18:17:51;6;3;3
77538;PMS7003;67783;51.656;16.106;2023-10-08T18:20:55;6;5;5
77538;PMS7003;67783;51.656;16.106;2023-10-08T18:23:58;16;6;3
77538;PMS7003;67783;51.656;16.106;2023-10-08T18:27:01;7;6;4
77538;PMS7003;67783;51.656;16.106;2023-10-08T18:30:03;8;5;4
77538;PMS7003;67783;51.656;16.106;2023-10-08T18:33:07;7;6;4
77538;PMS7003;67783;51.656;16.106;2023-10-08T18:36:16;7;7;5
77538;PMS7003;67783;51.656;16.106;2023-10-08T18:39:19;5;5;4
77538;PMS7003;67783;51.656;16.106;2023-10-08T18:42:21;8;5;4
77538;PMS7003;67783;51.656;16.106;2023-10-08T18:45:31;6;4;4
77538;PMS7003;67783;51.656;16.106;2023-10-08T18:48:34;4;4;3
77538;PMS7003;67783;51.656;16.106;2023-10-08T18:51:39;8;6;4
77538;PMS7003;67783;51.656;16.106;2023-10-08T18:54:43;10;10;5
77538;PMS7003;67783;51.656;16.106;2023-10-08T18:57:50;9;8;5
77538;PMS7003;67783;51.656;16.106;2023-10-08T19:00:54;11;8;6
77538;PMS7003;67783;51.656;16.106;2023-10-08T19:03:56;9;8;6
77538;PMS7003;67783;51.656;16.106;2023-10-08T19:07:01;7;6;4
77538;PMS7003;67783;51.656;16.106;2023-10-08T19:10:07;4;4;3
77538;PMS7003;67783;51.656;16.106;2023-10-08T19:13:10;7;4;3
77538;PMS7003;67783;51.656;16.106;2023-10-08T19:16:12;4;4;3
77538;PMS7003;67783;51.656;16.106;2023-10-08T19:19:17;3;3;2
77538;PMS7003;67783;51.656;16.106;2023-10-08T19:22:22;13;11;9
77538;PMS7003;67783;51.656;16.106;2023-10-08T19:25:27;6;6;4
77538;PMS7003;67783;51.656;16.106;2023-10-08T19:28:29;3;2;1
77538;PMS7003;67783;51.656;16.106;2023-10-08T19:31:34;4;3;2
77538;PMS7003;67783;51.656;16.106;2023-10-08T19:34:35;5;3;1
77538;PMS7003;67783;51.656;16.106;2023-10-08T19:37:43;3;3;2
77538;PMS7003;67783;51.656;16.106;2023-10-08T19:40:46;2;2;2
77538;PMS7003;67783;51.656;16.106;2023-10-08T19:43:49;1;1;1
77538;PMS7003;67783;51.656;16.106;2023-10-08T19:46:54;2;2;2
77538;PMS7003;67783;51.656;16.106;2023-10-08T19:49:57;2;2;1
77538;PMS7003;67783;51.656;16.106;2023-10-08T19:53:03;4;4;2
77538;PMS7003;67783;51.656;16.106;2023-10-08T19:56:05;3;3;2
77538;PMS7003;67783;51.656;16.106;2023-10-08T19:59:08;3;3;3
77538;PMS7003;67783;51.656;16.106;2023-10-08T20:02:12;4;3;2
77538;PMS7003;67783;51.656;16.106;2023-10-08T20:05:14;5;4;2
77538;PMS7003;67783;51.656;16.106;2023-10-08T20:08:24;2;2;1
77538;PMS7003;67783;51.656;16.106;2023-10-08T20:11:26;3;2;2
77538;PMS7003;67783;51.656;16.106;2023-10-08T20:14:28;3;2;2
77538;PMS7003;67783;51.656;16.106;2023-10-08T20:17:29;2;2;1
77538;PMS7003;67783;51.656;16.106;2023-10-08T20:20:32;2;2;2
77538;PMS7003;67783;51.656;16.106;2023-10-08T20:23:44;4;3;2
77538;PMS7003;67783;51.656;16.106;2023-10-08T20:26:46;7;5;3
77538;PMS7003;67783;51.656;16.106;2023-10-08T20:29:49;10;6;3
77538;PMS7003;67783;51.656;16.106;2023-10-08T20:32:51;5;5;4
77538;PMS7003;67783;51.656;16.106;2023-10-08T20:35:53;7;4;3
77538;PMS7003;67783;51.656;16.106;2023-10-08T20:39:05;4;4;3
77538;PMS7003;67783;51.656;16.106;2023-10-08T20:42:11;3;2;2
77538;PMS7003;67783;51.656;16.106;2023-10-08T20:45:16;3;2;2
77538;PMS7003;67783;51.656;16.106;2023-10-08T20:48:21;2;2;1
77538;PMS7003;67783;51.656;16.106;2023-10-08T20:51:25;2;2;2
77538;PMS7003;67783;51.656;16.106;2023-10-08T20:54:30;1;1;1
77538;PMS7003;67783;51.656;16.106;2023-10-08T20:57:34;1;1;1
77538;PMS7003;67783;51.656;16.106;2023-10-08T21:00:36;1;1;0